Terminal Aerodrome Forecast
Issued by NWS

Home | Current Version | Previous Version | Text Only | Print | Product List | Glossary On
Versions: 1 2 3 4 5 6 7 8 9 10 11 12
000
FTUS45 KRIW 281100
TAFWRL
TAF
KWRL 281121Z 2812/2912 VRB06KT P6SM SCT060 BKN090
     FM282200 34011KT P6SM VCTS SCT035 BKN070CB
     FM290200 35010KT P6SM BKN070
     FM290600 32006KT P6SM -SHRA OVC035=

USA.gov is the U.S. government's official web portal to all federal, state and local government web resources and services.